sensor_id;sensor_type;location;lat;lon;timestamp;pressure;altitude;pressure_sealevel;temperature;humidity
32761;BME280;19126;47.472;7.850;2022-07-10T00:00:33;97254.69;;;13.95;99.87
32761;BME280;19126;47.472;7.850;2022-07-10T00:03:02;97250.41;;;13.94;99.71
32761;BME280;19126;47.472;7.850;2022-07-10T00:05:30;97246.56;;;13.96;98.87
32761;BME280;19126;47.472;7.850;2022-07-10T00:07:58;97243.50;;;13.92;97.31
32761;BME280;19126;47.472;7.850;2022-07-10T00:10:26;97245.13;;;13.94;95.49
32761;BME280;19126;47.472;7.850;2022-07-10T00:12:55;97245.50;;;13.90;95.02
32761;BME280;19126;47.472;7.850;2022-07-10T00:15:22;97244.00;;;13.88;95.35
32761;BME280;19126;47.472;7.850;2022-07-10T00:17:49;97239.91;;;13.85;95.87
32761;BME280;19126;47.472;7.850;2022-07-10T00:20:17;97233.34;;;13.81;97.58
32761;BME280;19126;47.472;7.850;2022-07-10T00:22:44;97240.28;;;13.82;97.40
32761;BME280;19126;47.472;7.850;2022-07-10T00:25:13;97237.00;;;13.80;97.17
32761;BME280;19126;47.472;7.850;2022-07-10T00:27:42;97238.00;;;13.79;95.89
32761;BME280;19126;47.472;7.850;2022-07-10T00:30:10;97241.81;;;13.76;94.85
32761;BME280;19126;47.472;7.850;2022-07-10T00:32:38;97241.72;;;13.70;93.47
32761;BME280;19126;47.472;7.850;2022-07-10T00:35:06;97246.34;;;13.68;92.26
32761;BME280;19126;47.472;7.850;2022-07-10T00:37:34;97241.59;;;13.63;92.07
32761;BME280;19126;47.472;7.850;2022-07-10T00:40:03;97234.22;;;13.58;93.38
32761;BME280;19126;47.472;7.850;2022-07-10T00:42:32;97242.94;;;13.59;97.34
32761;BME280;19126;47.472;7.850;2022-07-10T00:45:00;97252.16;;;13.63;96.54
32761;BME280;19126;47.472;7.850;2022-07-10T00:47:27;97241.50;;;13.56;92.68
32761;BME280;19126;47.472;7.850;2022-07-10T00:49:54;97232.94;;;13.54;90.82
32761;BME280;19126;47.472;7.850;2022-07-10T00:52:22;97238.84;;;13.56;92.77
32761;BME280;19126;47.472;7.850;2022-07-10T00:54:50;97245.13;;;13.55;92.38
32761;BME280;19126;47.472;7.850;2022-07-10T00:57:18;97233.59;;;13.56;92.08
32761;BME280;19126;47.472;7.850;2022-07-10T00:59:49;97239.66;;;13.57;91.89
32761;BME280;19126;47.472;7.850;2022-07-10T01:02:16;97233.94;;;13.53;90.95
32761;BME280;19126;47.472;7.850;2022-07-10T01:04:44;97231.47;;;13.52;89.28
32761;BME280;19126;47.472;7.850;2022-07-10T01:07:12;97232.47;;;13.51;88.76
32761;BME280;19126;47.472;7.850;2022-07-10T01:09:42;97226.88;;;13.45;86.84
32761;BME280;19126;47.472;7.850;2022-07-10T01:12:11;97225.56;;;13.41;86.81
32761;BME280;19126;47.472;7.850;2022-07-10T01:14:39;97231.84;;;13.40;87.04
32761;BME280;19126;47.472;7.850;2022-07-10T01:17:10;97234.84;;;13.37;86.69
32761;BME280;19126;47.472;7.850;2022-07-10T01:19:38;97228.81;;;13.28;86.02
32761;BME280;19126;47.472;7.850;2022-07-10T01:22:06;97239.19;;;13.30;86.60
32761;BME280;19126;47.472;7.850;2022-07-10T01:24:33;97227.97;;;13.28;86.38
32761;BME280;19126;47.472;7.850;2022-07-10T01:27:02;97227.81;;;13.29;86.53
32761;BME280;19126;47.472;7.850;2022-07-10T01:29:29;97230.63;;;13.28;86.76
32761;BME280;19126;47.472;7.850;2022-07-10T01:31:56;97226.53;;;13.25;85.82
32761;BME280;19126;47.472;7.850;2022-07-10T01:34:25;97226.84;;;13.22;85.18
32761;BME280;19126;47.472;7.850;2022-07-10T01:36:53;97228.19;;;13.18;85.98
32761;BME280;19126;47.472;7.850;2022-07-10T01:39:21;97223.28;;;13.15;84.51
32761;BME280;19126;47.472;7.850;2022-07-10T01:41:49;97231.53;;;13.12;84.09
32761;BME280;19126;47.472;7.850;2022-07-10T01:44:16;97224.16;;;13.07;83.98
32761;BME280;19126;47.472;7.850;2022-07-10T01:46:44;97226.31;;;13.03;83.19
32761;BME280;19126;47.472;7.850;2022-07-10T01:49:12;97230.16;;;13.01;83.27
32761;BME280;19126;47.472;7.850;2022-07-10T01:51:39;97234.94;;;12.97;84.46
32761;BME280;19126;47.472;7.850;2022-07-10T01:54:06;97233.63;;;12.93;82.80
32761;BME280;19126;47.472;7.850;2022-07-10T01:56:35;97232.00;;;12.92;81.97
32761;BME280;19126;47.472;7.850;2022-07-10T01:59:04;97233.81;;;12.92;81.78
32761;BME280;19126;47.472;7.850;2022-07-10T02:01:31;97238.47;;;12.89;81.23
32761;BME280;19126;47.472;7.850;2022-07-10T02:03:59;97233.69;;;12.85;80.85
32761;BME280;19126;47.472;7.850;2022-07-10T02:06:44;97237.31;;;12.84;79.37
32761;BME280;19126;47.472;7.850;2022-07-10T02:09:11;97228.09;;;12.80;78.98
32761;BME280;19126;47.472;7.850;2022-07-10T02:11:42;97241.28;;;12.80;79.21
32761;BME280;19126;47.472;7.850;2022-07-10T02:14:09;97237.19;;;12.77;77.85
32761;BME280;19126;47.472;7.850;2022-07-10T02:16:36;97233.44;;;12.71;80.57
32761;BME280;19126;47.472;7.850;2022-07-10T02:19:04;97245.31;;;12.67;80.11
32761;BME280;19126;47.472;7.850;2022-07-10T02:21:31;97247.28;;;12.65;79.40
32761;BME280;19126;47.472;7.850;2022-07-10T02:23:58;97239.91;;;12.60;78.18
32761;BME280;19126;47.472;7.850;2022-07-10T02:26:25;97238.44;;;12.58;78.10
32761;BME280;19126;47.472;7.850;2022-07-10T02:28:54;97247.19;;;12.58;80.88
32761;BME280;19126;47.472;7.850;2022-07-10T02:31:21;97241.91;;;12.58;78.76
32761;BME280;19126;47.472;7.850;2022-07-10T02:33:48;97244.88;;;12.55;76.46
32761;BME280;19126;47.472;7.850;2022-07-10T02:36:15;97242.41;;;12.54;74.57
32761;BME280;19126;47.472;7.850;2022-07-10T02:38:43;97235.84;;;12.50;74.01
32761;BME280;19126;47.472;7.850;2022-07-10T02:41:10;97235.19;;;12.48;74.13
32761;BME280;19126;47.472;7.850;2022-07-10T02:43:37;97233.88;;;12.43;75.15
32761;BME280;19126;47.472;7.850;2022-07-10T02:46:06;97235.38;;;12.46;75.18
32761;BME280;19126;47.472;7.850;2022-07-10T02:48:33;97246.25;;;12.43;75.03
32761;BME280;19126;47.472;7.850;2022-07-10T02:51:00;97243.44;;;12.44;74.73
32761;BME280;19126;47.472;7.850;2022-07-10T02:53:27;97244.41;;;12.43;73.04
32761;BME280;19126;47.472;7.850;2022-07-10T02:55:54;97244.59;;;12.42;72.36
32761;BME280;19126;47.472;7.850;2022-07-10T02:58:22;97249.03;;;12.41;71.57
32761;BME280;19126;47.472;7.850;2022-07-10T03:00:49;97249.88;;;12.42;72.25
32761;BME280;19126;47.472;7.850;2022-07-10T03:03:17;97253.50;;;12.41;71.34
32761;BME280;19126;47.472;7.850;2022-07-10T03:05:45;97244.09;;;12.38;70.29
32761;BME280;19126;47.472;7.850;2022-07-10T03:08:12;97250.22;;;12.39;70.19
32761;BME280;19126;47.472;7.850;2022-07-10T03:10:39;97242.00;;;12.34;69.96
32761;BME280;19126;47.472;7.850;2022-07-10T03:13:07;97246.44;;;12.33;71.06
32761;BME280;19126;47.472;7.850;2022-07-10T03:15:35;97240.34;;;12.33;68.88
32761;BME280;19126;47.472;7.850;2022-07-10T03:18:02;97240.03;;;12.27;68.45
32761;BME280;19126;47.472;7.850;2022-07-10T03:20:31;97229.84;;;12.24;68.21
32761;BME280;19126;47.472;7.850;2022-07-10T03:22:58;97241.38;;;12.23;67.04
32761;BME280;19126;47.472;7.850;2022-07-10T03:25:25;97243.03;;;12.24;65.45
32761;BME280;19126;47.472;7.850;2022-07-10T03:27:52;97245.47;;;12.26;64.14
32761;BME280;19126;47.472;7.850;2022-07-10T03:30:19;97240.03;;;12.27;63.63
32761;BME280;19126;47.472;7.850;2022-07-10T03:32:46;97241.69;;;12.28;62.65
32761;BME280;19126;47.472;7.850;2022-07-10T03:35:13;97251.06;;;12.31;62.80
32761;BME280;19126;47.472;7.850;2022-07-10T03:37:42;97243.66;;;12.35;63.44
32761;BME280;19126;47.472;7.850;2022-07-10T03:40:10;97244.47;;;12.27;63.25
32761;BME280;19126;47.472;7.850;2022-07-10T03:42:37;97244.31;;;12.28;62.67
32761;BME280;19126;47.472;7.850;2022-07-10T03:45:06;97244.31;;;12.28;62.24
32761;BME280;19126;47.472;7.850;2022-07-10T03:47:33;97236.56;;;12.27;62.61
32761;BME280;19126;47.472;7.850;2022-07-10T03:50:00;97237.56;;;12.26;62.25
32761;BME280;19126;47.472;7.850;2022-07-10T03:52:28;97235.91;;;12.25;62.31
32761;BME280;19126;47.472;7.850;2022-07-10T03:54:56;97239.41;;;12.25;64.10
32761;BME280;19126;47.472;7.850;2022-07-10T03:57:23;97236.75;;;12.25;63.49
32761;BME280;19126;47.472;7.850;2022-07-10T04:00:09;97238.56;;;12.25;62.44
32761;BME280;19126;47.472;7.850;2022-07-10T04:02:37;97239.53;;;12.24;62.18
32761;BME280;19126;47.472;7.850;2022-07-10T04:05:05;97246.31;;;12.18;63.18
32761;BME280;19126;47.472;7.850;2022-07-10T04:07:33;97245.50;;;12.18;63.08
32761;BME280;19126;47.472;7.850;2022-07-10T04:10:03;97239.88;;;12.21;62.91
32761;BME280;19126;47.472;7.850;2022-07-10T04:12:30;97241.72;;;12.20;61.74
32761;BME280;19126;47.472;7.850;2022-07-10T04:14:58;97237.91;;;12.23;59.79
32761;BME280;19126;47.472;7.850;2022-07-10T04:17:25;97243.50;;;12.28;58.58
32761;BME280;19126;47.472;7.850;2022-07-10T04:19:52;97252.69;;;12.32;57.17
32761;BME280;19126;47.472;7.850;2022-07-10T04:22:19;97249.06;;;12.33;56.43
32761;BME280;19126;47.472;7.850;2022-07-10T04:24:46;97252.69;;;12.32;55.61
32761;BME280;19126;47.472;7.850;2022-07-10T04:27:15;97244.97;;;12.30;55.78
32761;BME280;19126;47.472;7.850;2022-07-10T04:29:42;97247.91;;;12.36;54.03
32761;BME280;19126;47.472;7.850;2022-07-10T04:32:09;97246.41;;;12.41;53.17
32761;BME280;19126;47.472;7.850;2022-07-10T04:34:37;97253.63;;;12.48;52.34
32761;BME280;19126;47.472;7.850;2022-07-10T04:37:04;97255.47;;;12.47;55.01
32761;BME280;19126;47.472;7.850;2022-07-10T04:39:33;97253.94;;;12.53;56.06
32761;BME280;19126;47.472;7.850;2022-07-10T04:42:00;97256.53;;;12.61;57.12
32761;BME280;19126;47.472;7.850;2022-07-10T04:44:30;97252.88;;;12.70;56.68
32761;BME280;19126;47.472;7.850;2022-07-10T04:46:57;97254.81;;;12.77;55.74
32761;BME280;19126;47.472;7.850;2022-07-10T04:49:25;97258.75;;;12.81;57.43
32761;BME280;19126;47.472;7.850;2022-07-10T04:51:52;97255.91;;;12.90;57.16
32761;BME280;19126;47.472;7.850;2022-07-10T04:54:19;97263.47;;;12.94;58.35
32761;BME280;19126;47.472;7.850;2022-07-10T04:56:47;97261.34;;;12.89;59.08
32761;BME280;19126;47.472;7.850;2022-07-10T04:59:14;97266.41;;;12.99;58.19
32761;BME280;19126;47.472;7.850;2022-07-10T05:01:42;97268.00;;;13.08;58.14
32761;BME280;19126;47.472;7.850;2022-07-10T05:04:12;97266.44;;;13.22;57.16
32761;BME280;19126;47.472;7.850;2022-07-10T05:06:39;97265.22;;;13.33;56.21
32761;BME280;19126;47.472;7.850;2022-07-10T05:09:07;97271.31;;;13.42;55.37
32761;BME280;19126;47.472;7.850;2022-07-10T05:11:34;97256.28;;;13.42;54.59
32761;BME280;19126;47.472;7.850;2022-07-10T05:14:01;97260.97;;;13.55;53.80
32761;BME280;19126;47.472;7.850;2022-07-10T05:16:28;97261.56;;;13.66;52.95
32761;BME280;19126;47.472;7.850;2022-07-10T05:18:57;97258.00;;;13.73;52.17
32761;BME280;19126;47.472;7.850;2022-07-10T05:21:24;97263.22;;;13.82;54.06
32761;BME280;19126;47.472;7.850;2022-07-10T05:23:52;97268.38;;;14.13;53.98
32761;BME280;19126;47.472;7.850;2022-07-10T05:26:19;97262.53;;;14.63;53.28
32761;BME280;19126;47.472;7.850;2022-07-10T05:28:46;97267.78;;;15.08;54.61
32761;BME280;19126;47.472;7.850;2022-07-10T05:31:13;97275.50;;;15.46;58.24
32761;BME280;19126;47.472;7.850;2022-07-10T05:33:41;97262.78;;;15.85;71.38
32761;BME280;19126;47.472;7.850;2022-07-10T05:36:10;97264.13;;;15.96;84.76
32761;BME280;19126;47.472;7.850;2022-07-10T05:38:37;97263.56;;;16.01;95.69
32761;BME280;19126;47.472;7.850;2022-07-10T05:41:04;97263.34;;;16.02;100.00
32761;BME280;19126;47.472;7.850;2022-07-10T05:43:31;97265.28;;;16.15;100.00
32761;BME280;19126;47.472;7.850;2022-07-10T05:45:59;97268.41;;;16.25;100.00
32761;BME280;19126;47.472;7.850;2022-07-10T05:48:26;97278.41;;;16.30;100.00
32761;BME280;19126;47.472;7.850;2022-07-10T05:50:53;97263.19;;;16.39;100.00
32761;BME280;19126;47.472;7.850;2022-07-10T05:53:22;97268.28;;;16.40;100.00
32761;BME280;19126;47.472;7.850;2022-07-10T05:55:49;97263.09;;;16.61;100.00
32761;BME280;19126;47.472;7.850;2022-07-10T05:58:17;97264.19;;;16.80;100.00
32761;BME280;19126;47.472;7.850;2022-07-10T06:00:44;97263.03;;;16.96;100.00
32761;BME280;19126;47.472;7.850;2022-07-10T06:03:11;97270.66;;;17.19;100.00
32761;BME280;19126;47.472;7.850;2022-07-10T06:05:39;97267.28;;;17.59;100.00
32761;BME280;19126;47.472;7.850;2022-07-10T06:08:06;97259.94;;;18.01;100.00
32761;BME280;19126;47.472;7.850;2022-07-10T06:10:34;97263.19;;;18.24;100.00
32761;BME280;19126;47.472;7.850;2022-07-10T06:13:02;97265.84;;;18.30;100.00
32761;BME280;19126;47.472;7.850;2022-07-10T06:15:29;97264.78;;;18.45;100.00
32761;BME280;19126;47.472;7.850;2022-07-10T06:17:57;97255.25;;;18.83;100.00
32761;BME280;19126;47.472;7.850;2022-07-10T06:20:25;97254.91;;;19.18;100.00
32761;BME280;19126;47.472;7.850;2022-07-10T06:22:53;97253.84;;;19.26;98.57
32761;BME280;19126;47.472;7.850;2022-07-10T06:25:20;97250.00;;;19.47;100.00
32761;BME280;19126;47.472;7.850;2022-07-10T06:27:48;97257.03;;;19.41;96.58
32761;BME280;19126;47.472;7.850;2022-07-10T06:30:16;97256.41;;;19.39;98.04
32761;BME280;19126;47.472;7.850;2022-07-10T06:32:43;97255.25;;;19.93;100.00
32761;BME280;19126;47.472;7.850;2022-07-10T06:35:11;97261.69;;;20.03;95.20
32761;BME280;19126;47.472;7.850;2022-07-10T06:37:38;97260.81;;;20.10;94.03
32761;BME280;19126;47.472;7.850;2022-07-10T06:40:07;97257.38;;;20.46;96.28
32761;BME280;19126;47.472;7.850;2022-07-10T06:42:36;97253.44;;;20.30;91.31
32761;BME280;19126;47.472;7.850;2022-07-10T06:45:06;97260.84;;;20.28;92.81
32761;BME280;19126;47.472;7.850;2022-07-10T06:47:34;97264.94;;;20.31;93.52
32761;BME280;19126;47.472;7.850;2022-07-10T06:50:18;97260.63;;;20.67;92.75
32761;BME280;19126;47.472;7.850;2022-07-10T06:52:47;97269.75;;;20.97;90.24
32761;BME280;19126;47.472;7.850;2022-07-10T06:55:14;97265.78;;;21.18;89.20
32761;BME280;19126;47.472;7.850;2022-07-10T06:57:42;97267.50;;;21.43;89.06
32761;BME280;19126;47.472;7.850;2022-07-10T07:00:11;97266.56;;;21.79;84.93
32761;BME280;19126;47.472;7.850;2022-07-10T07:02:38;97264.47;;;22.29;85.25
32761;BME280;19126;47.472;7.850;2022-07-10T07:05:07;97266.09;;;22.18;79.82
32761;BME280;19126;47.472;7.850;2022-07-10T07:07:35;97268.84;;;22.83;80.74
32761;BME280;19126;47.472;7.850;2022-07-10T07:10:03;97266.69;;;22.56;79.22
32761;BME280;19126;47.472;7.850;2022-07-10T07:12:31;97270.41;;;21.95;78.21
32761;BME280;19126;47.472;7.850;2022-07-10T07:14:58;97270.22;;;21.55;80.46
32761;BME280;19126;47.472;7.850;2022-07-10T07:17:27;97265.59;;;21.31;86.50
32761;BME280;19126;47.472;7.850;2022-07-10T07:20:00;97263.78;;;21.44;84.21
32761;BME280;19126;47.472;7.850;2022-07-10T07:22:45;97262.38;;;22.19;84.65
32761;BME280;19126;47.472;7.850;2022-07-10T07:25:30;97266.53;;;22.75;81.98
32761;BME280;19126;47.472;7.850;2022-07-10T07:27:57;97266.13;;;22.30;75.13
32761;BME280;19126;47.472;7.850;2022-07-10T07:30:24;97258.09;;;22.54;80.03
32761;BME280;19126;47.472;7.850;2022-07-10T07:32:53;97261.59;;;22.54;74.39
32761;BME280;19126;47.472;7.850;2022-07-10T07:35:20;97263.19;;;22.67;74.24
32761;BME280;19126;47.472;7.850;2022-07-10T07:37:49;97257.81;;;22.79;76.71
32761;BME280;19126;47.472;7.850;2022-07-10T07:40:19;97263.25;;;23.25;75.66
32761;BME280;19126;47.472;7.850;2022-07-10T07:42:49;97262.00;;;22.75;75.98
32761;BME280;19126;47.472;7.850;2022-07-10T07:45:16;97254.69;;;23.00;74.92
32761;BME280;19126;47.472;7.850;2022-07-10T07:47:46;97258.63;;;23.09;75.32
32761;BME280;19126;47.472;7.850;2022-07-10T07:50:17;97259.94;;;23.35;75.78
32761;BME280;19126;47.472;7.850;2022-07-10T07:52:46;97255.53;;;23.00;74.32
32761;BME280;19126;47.472;7.850;2022-07-10T07:55:15;97261.63;;;23.24;75.33
32761;BME280;19126;47.472;7.850;2022-07-10T07:57:43;97268.38;;;24.07;72.50
32761;BME280;19126;47.472;7.850;2022-07-10T08:00:12;97261.66;;;24.66;69.56
32761;BME280;19126;47.472;7.850;2022-07-10T08:02:40;97254.81;;;24.76;71.90
32761;BME280;19126;47.472;7.850;2022-07-10T08:05:08;97260.81;;;24.04;71.28
32761;BME280;19126;47.472;7.850;2022-07-10T08:07:40;97265.16;;;23.76;73.09
32761;BME280;19126;47.472;7.850;2022-07-10T08:10:10;97261.97;;;23.45;76.87
32761;BME280;19126;47.472;7.850;2022-07-10T08:12:39;97264.84;;;22.97;76.01
32761;BME280;19126;47.472;7.850;2022-07-10T08:15:08;97256.78;;;23.38;79.88
32761;BME280;19126;47.472;7.850;2022-07-10T08:17:35;97251.53;;;23.95;77.61
32761;BME280;19126;47.472;7.850;2022-07-10T08:20:04;97263.59;;;24.49;74.75
32761;BME280;19126;47.472;7.850;2022-07-10T08:22:32;97250.97;;;23.76;70.40
32761;BME280;19126;47.472;7.850;2022-07-10T08:25:00;97257.16;;;24.50;74.02
32761;BME280;19126;47.472;7.850;2022-07-10T08:27:28;97242.38;;;24.92;76.29
32761;BME280;19126;47.472;7.850;2022-07-10T08:29:55;97248.00;;;24.90;71.25
32761;BME280;19126;47.472;7.850;2022-07-10T08:32:22;97260.56;;;24.84;68.83
32761;BME280;19126;47.472;7.850;2022-07-10T08:34:49;97254.78;;;25.20;74.63
32761;BME280;19126;47.472;7.850;2022-07-10T08:37:16;97255.03;;;25.46;71.00
32761;BME280;19126;47.472;7.850;2022-07-10T08:39:45;97251.53;;;25.18;66.24
32761;BME280;19126;47.472;7.850;2022-07-10T08:42:16;97257.88;;;25.94;69.93
32761;BME280;19126;47.472;7.850;2022-07-10T08:44:44;97248.69;;;26.28;67.06
32761;BME280;19126;47.472;7.850;2022-07-10T08:47:12;97244.25;;;26.54;63.73
32761;BME280;19126;47.472;7.850;2022-07-10T08:49:46;97240.47;;;25.42;61.87
32761;BME280;19126;47.472;7.850;2022-07-10T08:52:26;97238.31;;;25.44;63.52
32761;BME280;19126;47.472;7.850;2022-07-10T08:54:53;97236.75;;;25.75;65.04
32761;BME280;19126;47.472;7.850;2022-07-10T08:57:23;97239.38;;;25.43;64.38
32761;BME280;19126;47.472;7.850;2022-07-10T08:59:50;97233.59;;;25.24;62.68
32761;BME280;19126;47.472;7.850;2022-07-10T09:02:17;97227.53;;;25.39;65.87
32761;BME280;19126;47.472;7.850;2022-07-10T09:04:45;97234.09;;;25.81;71.37
32761;BME280;19126;47.472;7.850;2022-07-10T09:07:13;97225.78;;;26.25;64.39
32761;BME280;19126;47.472;7.850;2022-07-10T09:09:52;97233.88;;;25.55;63.82
32761;BME280;19126;47.472;7.850;2022-07-10T09:12:22;97234.66;;;26.26;68.66
32761;BME280;19126;47.472;7.850;2022-07-10T09:14:50;97239.06;;;25.99;62.98
32761;BME280;19126;47.472;7.850;2022-07-10T09:17:18;97237.88;;;26.23;63.67
32761;BME280;19126;47.472;7.850;2022-07-10T09:19:45;97238.84;;;26.49;61.56
32761;BME280;19126;47.472;7.850;2022-07-10T09:22:13;97238.84;;;26.11;62.79
32761;BME280;19126;47.472;7.850;2022-07-10T09:24:42;97232.47;;;25.20;62.28
32761;BME280;19126;47.472;7.850;2022-07-10T09:27:12;97238.59;;;25.15;65.71
32761;BME280;19126;47.472;7.850;2022-07-10T09:29:52;97236.63;;;25.60;70.58
32761;BME280;19126;47.472;7.850;2022-07-10T09:32:21;97237.00;;;26.12;65.22
32761;BME280;19126;47.472;7.850;2022-07-10T09:34:50;97233.22;;;25.15;64.01
32761;BME280;19126;47.472;7.850;2022-07-10T09:37:40;97241.75;;;25.34;65.93
32761;BME280;19126;47.472;7.850;2022-07-10T09:40:08;97243.53;;;25.88;68.13
32761;BME280;19126;47.472;7.850;2022-07-10T09:42:39;97239.41;;;26.13;66.25
32761;BME280;19126;47.472;7.850;2022-07-10T09:45:19;97236.78;;;26.18;66.24
32761;BME280;19126;47.472;7.850;2022-07-10T09:47:55;97235.78;;;26.94;62.96
32761;BME280;19126;47.472;7.850;2022-07-10T09:50:26;97244.31;;;26.75;58.89
32761;BME280;19126;47.472;7.850;2022-07-10T09:52:56;97235.09;;;27.45;57.34
32761;BME280;19126;47.472;7.850;2022-07-10T09:55:26;97228.81;;;27.03;57.74
32761;BME280;19126;47.472;7.850;2022-07-10T09:57:57;97234.25;;;26.50;58.12
32761;BME280;19126;47.472;7.850;2022-07-10T10:00:28;97229.22;;;25.78;60.41
32761;BME280;19126;47.472;7.850;2022-07-10T10:02:57;97229.91;;;26.00;63.01
32761;BME280;19126;47.472;7.850;2022-07-10T10:05:36;97221.88;;;26.06;61.10
32761;BME280;19126;47.472;7.850;2022-07-10T10:08:11;97222.22;;;26.14;58.56
32761;BME280;19126;47.472;7.850;2022-07-10T10:10:44;97225.88;;;26.03;59.09
32761;BME280;19126;47.472;7.850;2022-07-10T10:13:16;97222.84;;;25.56;59.87
32761;BME280;19126;47.472;7.850;2022-07-10T10:15:47;97215.34;;;25.04;60.70
32761;BME280;19126;47.472;7.850;2022-07-10T10:18:18;97222.81;;;25.51;59.91
32761;BME280;19126;47.472;7.850;2022-07-10T10:20:46;97223.16;;;26.36;64.92
32761;BME280;19126;47.472;7.850;2022-07-10T10:23:15;97216.97;;;26.45;56.86
32761;BME280;19126;47.472;7.850;2022-07-10T10:25:44;97213.38;;;25.86;58.42
32761;BME280;19126;47.472;7.850;2022-07-10T10:28:13;97217.03;;;25.10;60.65
32761;BME280;19126;47.472;7.850;2022-07-10T10:30:44;97205.13;;;24.78;63.16
32761;BME280;19126;47.472;7.850;2022-07-10T10:33:45;97204.69;;;25.41;64.34
32761;BME280;19126;47.472;7.850;2022-07-10T10:36:42;97209.78;;;25.70;62.20
32761;BME280;19126;47.472;7.850;2022-07-10T10:39:12;97202.06;;;25.19;62.09
32761;BME280;19126;47.472;7.850;2022-07-10T10:41:41;97206.44;;;25.25;61.75
32761;BME280;19126;47.472;7.850;2022-07-10T10:44:28;97203.66;;;25.80;64.08
32761;BME280;19126;47.472;7.850;2022-07-10T10:47:06;97207.13;;;25.43;64.00
32761;BME280;19126;47.472;7.850;2022-07-10T10:50:01;97202.25;;;24.85;60.26
32761;BME280;19126;47.472;7.850;2022-07-10T10:52:28;97205.88;;;25.88;62.54
32761;BME280;19126;47.472;7.850;2022-07-10T10:55:08;97200.75;;;25.87;60.94
32761;BME280;19126;47.472;7.850;2022-07-10T10:57:44;97197.47;;;26.23;63.73
32761;BME280;19126;47.472;7.850;2022-07-10T11:00:32;97197.09;;;26.03;60.11
32761;BME280;19126;47.472;7.850;2022-07-10T11:03:19;97195.78;;;26.70;61.90
32761;BME280;19126;47.472;7.850;2022-07-10T11:05:50;97188.97;;;26.46;61.85
32761;BME280;19126;47.472;7.850;2022-07-10T11:08:40;97180.28;;;27.08;57.78
32761;BME280;19126;47.472;7.850;2022-07-10T11:11:39;97178.50;;;26.55;57.33
32761;BME280;19126;47.472;7.850;2022-07-10T11:14:09;97180.94;;;26.52;59.02
32761;BME280;19126;47.472;7.850;2022-07-10T11:16:45;97178.25;;;26.52;56.37
32761;BME280;19126;47.472;7.850;2022-07-10T11:19:24;97173.03;;;27.45;54.53
32761;BME280;19126;47.472;7.850;2022-07-10T11:22:07;97176.53;;;27.30;54.69
32761;BME280;19126;47.472;7.850;2022-07-10T11:24:48;97165.19;;;27.74;52.49
32761;BME280;19126;47.472;7.850;2022-07-10T11:27:34;97168.19;;;27.62;51.89
32761;BME280;19126;47.472;7.850;2022-07-10T11:30:04;97161.41;;;27.24;52.35
32761;BME280;19126;47.472;7.850;2022-07-10T11:32:34;97161.44;;;27.60;52.67
32761;BME280;19126;47.472;7.850;2022-07-10T11:35:01;97163.00;;;28.02;53.99
32761;BME280;19126;47.472;7.850;2022-07-10T11:37:30;97154.16;;;27.60;53.56
32761;BME280;19126;47.472;7.850;2022-07-10T11:40:10;97152.22;;;27.97;50.94
32761;BME280;19126;47.472;7.850;2022-07-10T11:42:52;97157.31;;;28.14;49.96
32761;BME280;19126;47.472;7.850;2022-07-10T11:45:37;97152.50;;;27.80;51.58
32761;BME280;19126;47.472;7.850;2022-07-10T11:48:06;97153.59;;;27.38;52.92
32761;BME280;19126;47.472;7.850;2022-07-10T11:50:36;97155.22;;;27.70;52.25
32761;BME280;19126;47.472;7.850;2022-07-10T11:53:05;97156.84;;;27.76;52.98
32761;BME280;19126;47.472;7.850;2022-07-10T11:55:32;97157.03;;;28.11;48.00
32761;BME280;19126;47.472;7.850;2022-07-10T11:58:14;97154.94;;;27.76;47.78
32761;BME280;19126;47.472;7.850;2022-07-10T12:00:41;97155.47;;;27.89;47.87
32761;BME280;19126;47.472;7.850;2022-07-10T12:03:20;97161.41;;;27.86;53.45
32761;BME280;19126;47.472;7.850;2022-07-10T12:05:47;97162.50;;;27.85;50.32
32761;BME280;19126;47.472;7.850;2022-07-10T12:08:17;97155.69;;;27.98;47.14
32761;BME280;19126;47.472;7.850;2022-07-10T12:10:45;97161.66;;;27.89;47.52
32761;BME280;19126;47.472;7.850;2022-07-10T12:13:13;97148.34;;;28.29;51.25
32761;BME280;19126;47.472;7.850;2022-07-10T12:15:42;97154.59;;;28.04;47.64
32761;BME280;19126;47.472;7.850;2022-07-10T12:18:16;97140.72;;;28.42;47.13
32761;BME280;19126;47.472;7.850;2022-07-10T12:20:45;97145.38;;;28.86;50.78
32761;BME280;19126;47.472;7.850;2022-07-10T12:23:14;97148.78;;;29.42;46.18
32761;BME280;19126;47.472;7.850;2022-07-10T12:25:46;97143.91;;;28.99;47.70
32761;BME280;19126;47.472;7.850;2022-07-10T12:28:15;97145.03;;;28.93;44.74
32761;BME280;19126;47.472;7.850;2022-07-10T12:30:44;97142.63;;;28.91;49.04
32761;BME280;19126;47.472;7.850;2022-07-10T12:33:13;97129.03;;;29.02;46.50
32761;BME280;19126;47.472;7.850;2022-07-10T12:35:54;97141.22;;;28.99;43.49
32761;BME280;19126;47.472;7.850;2022-07-10T12:38:24;97137.88;;;29.13;45.17
32761;BME280;19126;47.472;7.850;2022-07-10T12:41:07;97146.56;;;29.09;43.12
32761;BME280;19126;47.472;7.850;2022-07-10T12:43:34;97142.41;;;28.83;41.79
32761;BME280;19126;47.472;7.850;2022-07-10T12:46:13;97139.66;;;28.88;43.89
32761;BME280;19126;47.472;7.850;2022-07-10T12:48:42;97136.78;;;28.79;41.96
32761;BME280;19126;47.472;7.850;2022-07-10T12:51:24;97134.81;;;28.85;40.44
32761;BME280;19126;47.472;7.850;2022-07-10T12:53:52;97131.09;;;28.70;43.07
32761;BME280;19126;47.472;7.850;2022-07-10T12:56:34;97140.34;;;28.59;43.96
32761;BME280;19126;47.472;7.850;2022-07-10T12:59:11;97140.59;;;28.67;41.10
32761;BME280;19126;47.472;7.850;2022-07-10T13:01:41;97142.75;;;28.71;41.85
32761;BME280;19126;47.472;7.850;2022-07-10T13:04:10;97139.56;;;28.58;40.68
32761;BME280;19126;47.472;7.850;2022-07-10T13:06:38;97136.56;;;28.60;42.10
32761;BME280;19126;47.472;7.850;2022-07-10T13:09:20;97138.53;;;28.49;38.33
32761;BME280;19126;47.472;7.850;2022-07-10T13:11:50;97135.72;;;28.70;38.42
32761;BME280;19126;47.472;7.850;2022-07-10T13:14:17;97135.34;;;28.87;36.40